createdAt,value
2022-10-26T00:01:47.695Z,9.45
2022-10-26T00:06:53.712Z,11.25
2022-10-26T00:12:00.853Z,9.68
2022-10-26T00:17:06.706Z,13.48
2022-10-26T00:22:13.668Z,8.15
2022-10-26T00:27:21.007Z,8.02
2022-10-26T00:32:27.077Z,7.20
2022-10-26T00:37:32.925Z,9.00
2022-10-26T00:42:40.369Z,13.55
2022-10-26T00:47:50.485Z,10.63
2022-10-26T00:52:59.661Z,8.73
2022-10-26T00:58:10.751Z,9.38
2022-10-26T01:03:17.297Z,12.48
2022-10-26T01:08:24.139Z,16.27
2022-10-26T01:13:36.139Z,10.60
2022-10-26T01:18:49.244Z,8.38
2022-10-26T01:24:25.002Z,11.10
2022-10-26T01:30:19.891Z,10.38
2022-10-26T01:35:33.331Z,10.57
2022-10-26T01:40:47.250Z,9.52
2022-10-26T01:45:56.253Z,7.55
2022-10-26T01:56:19.527Z,10.18
2022-10-26T02:01:46.632Z,14.77
2022-10-26T02:07:03.852Z,14.75
2022-10-26T02:12:21.523Z,12.55
2022-10-26T02:17:35.115Z,16.50
2022-10-26T02:22:45.840Z,18.67
2022-10-26T02:27:56.908Z,17.35
2022-10-26T02:33:06.980Z,16.23
2022-10-26T02:38:18.227Z,18.27
2022-10-26T02:43:25.090Z,14.98
2022-10-26T02:48:33.262Z,18.30
2022-10-26T02:53:47.965Z,15.47
2022-10-26T02:58:59.703Z,18.88
2022-10-26T03:04:07.481Z,15.13
2022-10-26T03:09:13.309Z,16.13
2022-10-26T03:14:19.537Z,15.00
2022-10-26T03:19:27.131Z,13.82
2022-10-26T03:24:33.158Z,15.65
2022-10-26T03:29:40.220Z,15.45
2022-10-26T03:34:47.738Z,17.42
2022-10-26T03:39:53.750Z,14.98
2022-10-26T03:44:59.621Z,13.88
2022-10-26T03:50:08.098Z,16.00
2022-10-26T03:55:14.032Z,16.45
2022-10-26T04:00:20.705Z,14.88
2022-10-26T04:05:30.445Z,11.60
2022-10-26T04:10:36.687Z,20.40
2022-10-26T04:15:43.576Z,17.05
2022-10-26T04:20:50.961Z,18.40
2022-10-26T04:25:56.984Z,15.65
2022-10-26T04:31:02.913Z,14.07
2022-10-26T04:36:11.288Z,14.82
2022-10-26T04:41:17.835Z,13.90
2022-10-26T04:46:23.761Z,11.88
2022-10-26T04:51:31.076Z,15.35
2022-10-26T04:56:37.157Z,11.18
2022-10-26T05:01:43.146Z,14.93
2022-10-26T05:06:50.811Z,15.55
2022-10-26T05:11:56.676Z,13.70
2022-10-26T05:17:02.486Z,14.00
2022-10-26T05:22:11.837Z,10.57
2022-10-26T05:27:18.879Z,10.73
2022-10-26T05:32:25.744Z,13.10
2022-10-26T05:37:33.161Z,11.25
2022-10-26T05:42:40.342Z,16.05
2022-10-26T05:47:47.770Z,19.30
2022-10-26T05:52:56.154Z,15.85
2022-10-26T05:58:02.954Z,15.30
2022-10-26T06:08:43.894Z,14.18
2022-10-26T06:13:51.064Z,11.43
2022-10-26T06:19:14.806Z,13.30
2022-10-26T06:24:30.833Z,14.50
2022-10-26T06:29:50.331Z,11.18
2022-10-26T06:35:13.669Z,17.20
2022-10-26T06:40:22.684Z,13.65
2022-10-26T06:50:42.757Z,11.45
2022-10-26T06:55:52.526Z,15.45
2022-10-26T07:00:59.621Z,11.48
2022-10-26T07:06:06.443Z,12.10
2022-10-26T07:11:13.830Z,11.80
2022-10-26T07:16:21.407Z,13.57
2022-10-26T07:21:27.652Z,15.25
2022-10-26T07:26:34.893Z,18.52
2022-10-26T07:31:40.820Z,17.67
2022-10-26T07:36:47.061Z,18.30
2022-10-26T07:41:56.222Z,13.85
2022-10-26T07:47:02.293Z,14.43
2022-10-26T07:52:08.768Z,14.55
2022-10-26T07:57:18.371Z,11.65
2022-10-26T08:02:25.576Z,11.90
2022-10-26T08:07:31.832Z,12.98
2022-10-26T08:12:40.417Z,14.25
2022-10-26T08:17:50.194Z,16.17
2022-10-26T08:23:01.404Z,13.45
2022-10-26T08:28:08.881Z,12.43
2022-10-26T08:33:14.753Z,15.32
2022-10-26T08:38:20.725Z,14.20
2022-10-26T08:43:35.695Z,13.10
2022-10-26T08:48:46.074Z,16.23
2022-10-26T08:53:58.763Z,11.93
2022-10-26T08:59:19.485Z,16.73
2022-10-26T09:04:30.192Z,15.80
2022-10-26T09:09:47.706Z,14.50
2022-10-26T09:15:12.732Z,22.50
2022-10-26T09:20:56.084Z,14.70
2022-10-26T09:26:04.454Z,16.25
2022-10-26T09:31:18.651Z,10.13
2022-10-26T09:36:25.497Z,12.18
2022-10-26T09:41:43.704Z,18.80
2022-10-26T09:47:00.104Z,15.47
2022-10-26T09:52:06.370Z,13.82
2022-10-26T09:57:17.311Z,13.35
2022-10-26T10:02:44.231Z,14.75
2022-10-26T10:07:50.861Z,14.88
2022-10-26T10:12:56.904Z,12.93
2022-10-26T10:18:04.349Z,10.63
2022-10-26T10:23:32.121Z,11.55
2022-10-26T10:28:38.410Z,12.40
2022-10-26T10:33:47.069Z,12.13
2022-10-26T10:38:55.052Z,13.68
2022-10-26T10:44:09.351Z,10.65
2022-10-26T10:49:27.799Z,11.70
2022-10-26T10:54:37.430Z,9.88
2022-10-26T11:00:01.340Z,11.02
2022-10-26T11:05:38.573Z,13.45
2022-10-26T11:10:51.866Z,11.82
2022-10-26T11:16:04.553Z,9.93
2022-10-26T11:21:27.157Z,11.35
2022-10-26T11:26:42.349Z,11.20
2022-10-26T11:32:04.126Z,10.83
2022-10-26T11:42:32.276Z,8.90
2022-10-26T11:47:45.935Z,12.93
2022-10-26T11:53:00.065Z,12.13
2022-10-26T11:58:06.919Z,12.68
2022-10-26T12:03:18.452Z,13.80
2022-10-26T12:08:33.767Z,12.10
2022-10-26T12:13:49.932Z,13.35
2022-10-26T12:19:02.842Z,13.90
2022-10-26T12:24:30.326Z,17.83
2022-10-26T12:30:10.993Z,12.80
2022-10-26T12:35:40.474Z,13.15
2022-10-26T12:41:28.034Z,18.65
2022-10-26T12:46:43.559Z,11.88
2022-10-26T12:51:51.209Z,13.85
2022-10-26T12:57:21.427Z,13.53
2022-10-26T13:02:50.674Z,13.30
2022-10-26T13:08:05.198Z,12.02
2022-10-26T13:13:25.617Z,10.98
2022-10-26T13:18:45.004Z,12.68
2022-10-26T13:24:10.196Z,11.60
2022-10-26T13:29:34.430Z,11.05
2022-10-26T13:34:44.301Z,9.45
2022-10-26T13:39:56.189Z,8.60
2022-10-26T13:45:10.435Z,10.52
2022-10-26T13:50:33.342Z,11.18
2022-10-26T13:56:07.393Z,8.82
2022-10-26T14:01:30.608Z,8.82
2022-10-26T14:06:43.190Z,9.50
2022-10-26T14:11:53.847Z,11.68
2022-10-26T14:17:02.707Z,8.27
2022-10-26T14:27:22.790Z,10.23
2022-10-26T14:32:33.872Z,7.15
2022-10-26T14:37:53.465Z,10.88
2022-10-26T14:43:05.263Z,11.75
2022-10-26T14:48:30.758Z,8.13
2022-10-26T14:53:41.694Z,8.27
2022-10-26T14:58:47.942Z,6.68
2022-10-26T15:04:01.938Z,6.88
2022-10-26T15:09:35.306Z,7.47
2022-10-26T15:14:45.356Z,8.88
2022-10-26T15:19:55.419Z,9.38
2022-10-26T15:25:07.262Z,27.98
2022-10-26T15:30:27.625Z,21.05
2022-10-26T15:35:35.494Z,8.77
2022-10-26T15:40:47.821Z,12.60
2022-10-26T15:45:55.461Z,11.93
2022-10-26T15:51:03.652Z,11.40
2022-10-26T15:56:17.401Z,9.17
2022-10-26T16:01:26.591Z,11.20
2022-10-26T16:06:37.263Z,14.27
2022-10-26T16:11:45.028Z,10.63
2022-10-26T16:16:51.572Z,10.77
2022-10-26T16:21:59.910Z,7.60
2022-10-26T16:27:10.788Z,8.63
2022-10-26T16:32:17.382Z,5.68
2022-10-26T16:37:25.979Z,7.30
2022-10-26T16:42:33.951Z,4.78
2022-10-26T16:47:40.775Z,6.93
2022-10-26T16:52:48.762Z,16.25
2022-10-26T16:57:55.995Z,9.87
2022-10-26T17:03:03.247Z,15.55
2022-10-26T17:08:12.424Z,11.60
2022-10-26T17:13:23.010Z,17.58
2022-10-26T17:18:31.004Z,21.08
2022-10-26T17:23:40.986Z,25.48
2022-10-26T17:28:56.189Z,24.40
2022-10-26T17:34:06.303Z,23.75
2022-10-26T17:39:16.916Z,18.13
2022-10-26T17:44:27.343Z,18.20
2022-10-26T17:49:41.313Z,14.68
2022-10-26T17:54:49.667Z,10.77
2022-10-26T17:59:57.264Z,13.43
2022-10-26T18:05:06.749Z,13.85
2022-10-26T18:10:37.046Z,10.60
2022-10-26T18:15:45.120Z,9.50
2022-10-26T18:21:08.630Z,13.10
2022-10-26T18:26:22.659Z,13.73
2022-10-26T18:31:33.264Z,18.17
2022-10-26T18:36:45.583Z,22.90
2022-10-26T18:41:54.509Z,30.48
2022-10-26T18:47:06.048Z,58.10
2022-10-26T18:52:14.680Z,89.13
2022-10-26T18:57:31.024Z,92.93
2022-10-26T19:08:12.003Z,122.63
2022-10-26T19:13:20.993Z,147.80
2022-10-26T19:18:30.046Z,110.18
2022-10-26T19:23:40.229Z,122.13
2022-10-26T19:28:49.465Z,123.72
2022-10-26T19:34:07.784Z,130.98
2022-10-26T19:39:18.325Z,131.20
2022-10-26T19:44:28.516Z,124.22
2022-10-26T19:49:39.679Z,108.03
2022-10-26T19:54:47.151Z,114.70
2022-10-26T19:59:55.871Z,101.28
2022-10-26T20:05:04.348Z,95.78
2022-10-26T20:10:14.207Z,101.35
2022-10-26T20:15:22.307Z,106.03
2022-10-26T20:20:33.761Z,107.60
2022-10-26T20:25:51.411Z,98.15
2022-10-26T20:31:02.223Z,78.35
2022-10-26T20:36:10.768Z,91.85
2022-10-26T20:41:23.019Z,80.93
2022-10-26T20:46:36.680Z,89.35
2022-10-26T20:52:15.740Z,92.70
2022-10-26T20:57:29.779Z,91.85
2022-10-26T21:02:38.224Z,57.67
2022-10-26T21:07:44.700Z,64.93
2022-10-26T21:12:55.263Z,67.22
2022-10-26T21:18:03.204Z,69.72
2022-10-26T21:23:09.844Z,107.23
2022-10-26T21:28:16.734Z,95.93
2022-10-26T21:33:32.281Z,103.82
2022-10-26T21:38:43.039Z,91.10
2022-10-26T21:44:03.381Z,82.57
2022-10-26T21:49:28.378Z,81.20
2022-10-26T21:54:39.270Z,75.47
2022-10-26T21:59:45.835Z,77.68
2022-10-26T22:04:53.437Z,83.47
2022-10-26T22:10:11.367Z,78.88
2022-10-26T22:15:25.665Z,79.50
2022-10-26T22:20:34.437Z,84.68
2022-10-26T22:25:40.726Z,114.60
2022-10-26T22:30:46.715Z,97.75
2022-10-26T22:35:54.175Z,104.80
2022-10-26T22:41:02.242Z,91.32
2022-10-26T22:46:11.537Z,96.22
2022-10-26T22:51:21.071Z,102.38
2022-10-26T22:56:28.352Z,95.15
2022-10-26T23:01:38.735Z,91.28
2022-10-26T23:06:46.122Z,79.22
2022-10-26T23:11:52.111Z,88.25
2022-10-26T23:16:57.960Z,95.78
2022-10-26T23:22:05.599Z,87.85
2022-10-26T23:27:11.283Z,91.75
2022-10-26T23:32:18.623Z,93.13
2022-10-26T23:37:25.865Z,88.93
2022-10-26T23:42:31.570Z,80.00
2022-10-26T23:47:37.325Z,87.03
2022-10-26T23:52:49.397Z,84.80
2022-10-26T23:57:55.253Z,78.28
